sensor_id;sensor_type;location;lat;lon;timestamp;P1;durP1;ratioP1;P2;durP2;ratioP2
76023;SDS011;64719;52.124;6.226;2024-02-26T00:00:12;6.50;;;4.90;;
76023;SDS011;64719;52.124;6.226;2024-02-26T00:02:40;6.75;;;5.07;;
76023;SDS011;64719;52.124;6.226;2024-02-26T00:05:07;8.75;;;5.30;;
76023;SDS011;64719;52.124;6.226;2024-02-26T00:07:33;8.57;;;4.93;;
76023;SDS011;64719;52.124;6.226;2024-02-26T00:10:00;11.35;;;5.90;;
76023;SDS011;64719;52.124;6.226;2024-02-26T00:12:26;6.60;;;4.95;;
76023;SDS011;64719;52.124;6.226;2024-02-26T00:14:52;8.65;;;5.22;;
76023;SDS011;64719;52.124;6.226;2024-02-26T00:17:19;8.98;;;5.00;;
76023;SDS011;64719;52.124;6.226;2024-02-26T00:19:46;6.30;;;4.85;;
76023;SDS011;64719;52.124;6.226;2024-02-26T00:22:13;12.43;;;5.70;;
76023;SDS011;64719;52.124;6.226;2024-02-26T00:24:39;9.77;;;5.63;;
76023;SDS011;64719;52.124;6.226;2024-02-26T00:27:06;7.75;;;4.95;;
76023;SDS011;64719;52.124;6.226;2024-02-26T00:29:32;11.48;;;5.47;;
76023;SDS011;64719;52.124;6.226;2024-02-26T00:31:58;11.02;;;5.47;;
76023;SDS011;64719;52.124;6.226;2024-02-26T00:34:25;13.18;;;6.18;;
76023;SDS011;64719;52.124;6.226;2024-02-26T00:36:52;10.15;;;6.28;;
76023;SDS011;64719;52.124;6.226;2024-02-26T00:39:19;9.80;;;5.70;;
76023;SDS011;64719;52.124;6.226;2024-02-26T00:41:45;9.02;;;5.35;;
76023;SDS011;64719;52.124;6.226;2024-02-26T00:44:11;8.43;;;5.85;;
76023;SDS011;64719;52.124;6.226;2024-02-26T00:46:38;10.35;;;5.85;;
76023;SDS011;64719;52.124;6.226;2024-02-26T00:49:04;8.75;;;5.60;;
76023;SDS011;64719;52.124;6.226;2024-02-26T00:51:30;9.57;;;5.57;;
76023;SDS011;64719;52.124;6.226;2024-02-26T00:53:58;10.00;;;5.93;;
76023;SDS011;64719;52.124;6.226;2024-02-26T00:56:24;10.10;;;5.47;;
76023;SDS011;64719;52.124;6.226;2024-02-26T00:58:51;10.77;;;5.65;;
76023;SDS011;64719;52.124;6.226;2024-02-26T01:01:17;8.85;;;5.38;;
76023;SDS011;64719;52.124;6.226;2024-02-26T01:03:43;9.65;;;5.90;;
76023;SDS011;64719;52.124;6.226;2024-02-26T01:06:10;9.20;;;6.10;;
76023;SDS011;64719;52.124;6.226;2024-02-26T01:08:36;10.75;;;6.00;;
76023;SDS011;64719;52.124;6.226;2024-02-26T01:11:04;9.90;;;5.70;;
76023;SDS011;64719;52.124;6.226;2024-02-26T01:13:30;10.65;;;6.03;;
76023;SDS011;64719;52.124;6.226;2024-02-26T01:15:56;10.40;;;5.18;;
76023;SDS011;64719;52.124;6.226;2024-02-26T01:18:23;9.75;;;5.72;;
76023;SDS011;64719;52.124;6.226;2024-02-26T01:20:49;10.85;;;5.78;;
76023;SDS011;64719;52.124;6.226;2024-02-26T01:23:15;9.25;;;5.70;;
76023;SDS011;64719;52.124;6.226;2024-02-26T01:25:42;9.35;;;5.78;;
76023;SDS011;64719;52.124;6.226;2024-02-26T01:28:10;9.90;;;5.80;;
76023;SDS011;64719;52.124;6.226;2024-02-26T01:30:36;10.25;;;6.50;;
76023;SDS011;64719;52.124;6.226;2024-02-26T01:33:02;9.82;;;6.05;;
76023;SDS011;64719;52.124;6.226;2024-02-26T01:35:29;11.00;;;6.57;;
76023;SDS011;64719;52.124;6.226;2024-02-26T01:37:56;10.50;;;6.60;;
76023;SDS011;64719;52.124;6.226;2024-02-26T01:40:26;12.85;;;6.65;;
76023;SDS011;64719;52.124;6.226;2024-02-26T01:42:52;11.18;;;6.03;;
76023;SDS011;64719;52.124;6.226;2024-02-26T01:45:20;10.52;;;6.38;;
76023;SDS011;64719;52.124;6.226;2024-02-26T01:47:49;13.18;;;6.18;;
76023;SDS011;64719;52.124;6.226;2024-02-26T01:50:16;9.82;;;6.20;;
76023;SDS011;64719;52.124;6.226;2024-02-26T01:52:43;11.57;;;6.65;;
76023;SDS011;64719;52.124;6.226;2024-02-26T01:55:09;10.30;;;6.30;;
76023;SDS011;64719;52.124;6.226;2024-02-26T01:57:36;14.50;;;7.38;;
76023;SDS011;64719;52.124;6.226;2024-02-26T02:00:02;10.52;;;6.22;;
76023;SDS011;64719;52.124;6.226;2024-02-26T02:02:32;10.57;;;6.30;;
76023;SDS011;64719;52.124;6.226;2024-02-26T02:04:58;8.93;;;5.57;;
76023;SDS011;64719;52.124;6.226;2024-02-26T02:07:24;10.80;;;5.75;;
76023;SDS011;64719;52.124;6.226;2024-02-26T02:09:51;10.88;;;5.50;;
76023;SDS011;64719;52.124;6.226;2024-02-26T02:12:18;10.98;;;6.30;;
76023;SDS011;64719;52.124;6.226;2024-02-26T02:14:44;9.50;;;5.95;;
76023;SDS011;64719;52.124;6.226;2024-02-26T02:17:10;11.82;;;6.13;;
76023;SDS011;64719;52.124;6.226;2024-02-26T02:19:38;12.45;;;6.70;;
76023;SDS011;64719;52.124;6.226;2024-02-26T02:22:06;11.45;;;6.68;;
76023;SDS011;64719;52.124;6.226;2024-02-26T02:24:32;8.55;;;5.35;;
76023;SDS011;64719;52.124;6.226;2024-02-26T02:26:58;8.35;;;5.50;;
76023;SDS011;64719;52.124;6.226;2024-02-26T02:29:25;9.40;;;5.35;;
76023;SDS011;64719;52.124;6.226;2024-02-26T02:31:52;8.73;;;5.55;;
76023;SDS011;64719;52.124;6.226;2024-02-26T02:34:19;12.18;;;6.05;;
76023;SDS011;64719;52.124;6.226;2024-02-26T02:36:50;8.65;;;5.53;;
76023;SDS011;64719;52.124;6.226;2024-02-26T02:39:19;10.45;;;5.97;;
76023;SDS011;64719;52.124;6.226;2024-02-26T02:41:45;10.38;;;5.40;;
76023;SDS011;64719;52.124;6.226;2024-02-26T02:44:12;10.10;;;5.75;;
76023;SDS011;64719;52.124;6.226;2024-02-26T02:46:38;9.10;;;5.05;;
76023;SDS011;64719;52.124;6.226;2024-02-26T02:49:07;11.52;;;5.28;;
76023;SDS011;64719;52.124;6.226;2024-02-26T02:51:34;8.32;;;4.72;;
76023;SDS011;64719;52.124;6.226;2024-02-26T02:54:00;8.40;;;5.40;;
76023;SDS011;64719;52.124;6.226;2024-02-26T02:56:28;10.45;;;5.30;;
76023;SDS011;64719;52.124;6.226;2024-02-26T02:58:54;10.27;;;5.47;;
76023;SDS011;64719;52.124;6.226;2024-02-26T03:01:20;9.23;;;5.68;;
76023;SDS011;64719;52.124;6.226;2024-02-26T03:03:47;9.13;;;5.97;;
76023;SDS011;64719;52.124;6.226;2024-02-26T03:06:13;8.93;;;5.78;;
76023;SDS011;64719;52.124;6.226;2024-02-26T03:08:39;7.90;;;5.20;;
76023;SDS011;64719;52.124;6.226;2024-02-26T03:11:07;9.68;;;5.82;;
76023;SDS011;64719;52.124;6.226;2024-02-26T03:13:34;9.98;;;5.80;;
76023;SDS011;64719;52.124;6.226;2024-02-26T03:16:04;9.00;;;5.05;;
76023;SDS011;64719;52.124;6.226;2024-02-26T03:18:30;11.20;;;5.32;;
76023;SDS011;64719;52.124;6.226;2024-02-26T03:20:56;7.18;;;4.50;;
76023;SDS011;64719;52.124;6.226;2024-02-26T03:23:23;7.55;;;5.10;;
76023;SDS011;64719;52.124;6.226;2024-02-26T03:25:49;8.80;;;4.78;;
76023;SDS011;64719;52.124;6.226;2024-02-26T03:28:15;10.57;;;5.95;;
76023;SDS011;64719;52.124;6.226;2024-02-26T03:30:43;9.02;;;5.18;;
76023;SDS011;64719;52.124;6.226;2024-02-26T03:33:09;10.98;;;5.50;;
76023;SDS011;64719;52.124;6.226;2024-02-26T03:35:35;8.82;;;5.38;;
76023;SDS011;64719;52.124;6.226;2024-02-26T03:38:02;8.70;;;5.30;;
76023;SDS011;64719;52.124;6.226;2024-02-26T03:40:28;8.95;;;5.70;;
76023;SDS011;64719;52.124;6.226;2024-02-26T03:42:54;8.45;;;5.70;;
76023;SDS011;64719;52.124;6.226;2024-02-26T03:45:22;9.60;;;5.60;;
76023;SDS011;64719;52.124;6.226;2024-02-26T03:47:50;10.10;;;5.50;;
76023;SDS011;64719;52.124;6.226;2024-02-26T03:50:16;8.93;;;5.50;;
76023;SDS011;64719;52.124;6.226;2024-02-26T03:52:42;10.55;;;5.90;;
76023;SDS011;64719;52.124;6.226;2024-02-26T03:55:08;9.38;;;5.47;;
76023;SDS011;64719;52.124;6.226;2024-02-26T03:57:36;12.18;;;5.57;;
76023;SDS011;64719;52.124;6.226;2024-02-26T04:00:02;10.27;;;5.57;;
76023;SDS011;64719;52.124;6.226;2024-02-26T04:02:28;9.50;;;5.28;;
76023;SDS011;64719;52.124;6.226;2024-02-26T04:04:56;8.88;;;5.30;;
76023;SDS011;64719;52.124;6.226;2024-02-26T04:07:24;11.00;;;6.20;;
76023;SDS011;64719;52.124;6.226;2024-02-26T04:09:50;9.38;;;5.70;;
76023;SDS011;64719;52.124;6.226;2024-02-26T04:12:16;9.18;;;5.70;;
76023;SDS011;64719;52.124;6.226;2024-02-26T04:14:43;10.60;;;5.75;;
76023;SDS011;64719;52.124;6.226;2024-02-26T04:17:10;7.67;;;5.20;;
76023;SDS011;64719;52.124;6.226;2024-02-26T04:19:36;13.00;;;5.57;;
76023;SDS011;64719;52.124;6.226;2024-02-26T04:22:04;9.60;;;4.80;;
76023;SDS011;64719;52.124;6.226;2024-02-26T04:24:30;9.23;;;5.20;;
76023;SDS011;64719;52.124;6.226;2024-02-26T04:26:56;8.27;;;5.28;;
76023;SDS011;64719;52.124;6.226;2024-02-26T04:29:23;9.10;;;4.88;;
76023;SDS011;64719;52.124;6.226;2024-02-26T04:31:49;9.30;;;5.10;;
76023;SDS011;64719;52.124;6.226;2024-02-26T04:34:15;9.07;;;4.70;;
76023;SDS011;64719;52.124;6.226;2024-02-26T04:36:42;6.03;;;4.30;;
76023;SDS011;64719;52.124;6.226;2024-02-26T04:39:10;8.30;;;5.10;;
76023;SDS011;64719;52.124;6.226;2024-02-26T04:41:36;7.82;;;4.70;;
76023;SDS011;64719;52.124;6.226;2024-02-26T04:44:02;8.85;;;4.90;;
76023;SDS011;64719;52.124;6.226;2024-02-26T04:46:29;6.60;;;4.47;;
76023;SDS011;64719;52.124;6.226;2024-02-26T04:48:55;7.47;;;4.63;;
76023;SDS011;64719;52.124;6.226;2024-02-26T04:51:21;8.18;;;5.07;;
76023;SDS011;64719;52.124;6.226;2024-02-26T04:53:48;10.93;;;5.43;;
76023;SDS011;64719;52.124;6.226;2024-02-26T04:56:15;10.20;;;5.68;;
76023;SDS011;64719;52.124;6.226;2024-02-26T04:58:42;8.35;;;5.13;;
76023;SDS011;64719;52.124;6.226;2024-02-26T05:01:08;8.82;;;4.93;;
76023;SDS011;64719;52.124;6.226;2024-02-26T05:03:35;9.30;;;4.85;;
76023;SDS011;64719;52.124;6.226;2024-02-26T05:06:02;9.82;;;5.40;;
76023;SDS011;64719;52.124;6.226;2024-02-26T05:08:28;8.32;;;5.03;;
76023;SDS011;64719;52.124;6.226;2024-02-26T05:10:55;8.98;;;5.50;;
76023;SDS011;64719;52.124;6.226;2024-02-26T05:13:23;11.15;;;5.57;;
76023;SDS011;64719;52.124;6.226;2024-02-26T05:15:49;10.90;;;6.40;;
76023;SDS011;64719;52.124;6.226;2024-02-26T05:18:17;8.55;;;4.93;;
76023;SDS011;64719;52.124;6.226;2024-02-26T05:20:43;9.85;;;5.80;;
76023;SDS011;64719;52.124;6.226;2024-02-26T05:23:09;11.32;;;5.40;;
76023;SDS011;64719;52.124;6.226;2024-02-26T05:25:36;12.20;;;5.47;;
76023;SDS011;64719;52.124;6.226;2024-02-26T05:28:02;10.13;;;5.57;;
76023;SDS011;64719;52.124;6.226;2024-02-26T05:30:30;10.30;;;5.57;;
76023;SDS011;64719;52.124;6.226;2024-02-26T05:32:56;8.82;;;5.22;;
76023;SDS011;64719;52.124;6.226;2024-02-26T05:35:23;8.63;;;5.47;;
76023;SDS011;64719;52.124;6.226;2024-02-26T05:37:49;8.50;;;5.72;;
76023;SDS011;64719;52.124;6.226;2024-02-26T05:40:15;7.55;;;4.97;;
76023;SDS011;64719;52.124;6.226;2024-02-26T05:42:42;10.50;;;5.82;;
76023;SDS011;64719;52.124;6.226;2024-02-26T05:45:10;9.02;;;5.45;;
76023;SDS011;64719;52.124;6.226;2024-02-26T05:47:37;10.00;;;6.05;;
76023;SDS011;64719;52.124;6.226;2024-02-26T05:50:07;9.38;;;6.07;;
76023;SDS011;64719;52.124;6.226;2024-02-26T05:52:35;9.82;;;6.13;;
76023;SDS011;64719;52.124;6.226;2024-02-26T05:55:02;10.07;;;5.85;;
76023;SDS011;64719;52.124;6.226;2024-02-26T05:57:28;8.60;;;5.65;;
76023;SDS011;64719;52.124;6.226;2024-02-26T05:59:54;8.57;;;5.30;;
76023;SDS011;64719;52.124;6.226;2024-02-26T06:02:21;10.18;;;6.30;;
76023;SDS011;64719;52.124;6.226;2024-02-26T06:04:48;8.80;;;5.38;;
76023;SDS011;64719;52.124;6.226;2024-02-26T06:07:15;10.23;;;6.70;;
76023;SDS011;64719;52.124;6.226;2024-02-26T06:09:41;12.38;;;5.90;;
76023;SDS011;64719;52.124;6.226;2024-02-26T06:12:07;8.90;;;6.25;;
76023;SDS011;64719;52.124;6.226;2024-02-26T06:14:34;8.43;;;5.22;;
76023;SDS011;64719;52.124;6.226;2024-02-26T06:17:01;9.05;;;5.95;;
76023;SDS011;64719;52.124;6.226;2024-02-26T06:19:27;11.55;;;6.45;;
76023;SDS011;64719;52.124;6.226;2024-02-26T06:21:55;9.18;;;5.90;;
76023;SDS011;64719;52.124;6.226;2024-02-26T06:24:21;8.80;;;5.05;;
76023;SDS011;64719;52.124;6.226;2024-02-26T06:26:47;10.63;;;6.13;;
76023;SDS011;64719;52.124;6.226;2024-02-26T06:29:14;10.05;;;6.15;;
76023;SDS011;64719;52.124;6.226;2024-02-26T06:31:40;9.05;;;6.47;;
76023;SDS011;64719;52.124;6.226;2024-02-26T06:34:07;9.80;;;5.82;;
76023;SDS011;64719;52.124;6.226;2024-02-26T06:36:33;8.10;;;5.80;;
76023;SDS011;64719;52.124;6.226;2024-02-26T06:39:01;10.90;;;6.13;;
76023;SDS011;64719;52.124;6.226;2024-02-26T06:41:27;9.80;;;5.85;;
76023;SDS011;64719;52.124;6.226;2024-02-26T06:43:55;10.25;;;6.25;;
76023;SDS011;64719;52.124;6.226;2024-02-26T06:46:21;11.63;;;6.07;;
76023;SDS011;64719;52.124;6.226;2024-02-26T06:48:47;11.45;;;6.22;;
76023;SDS011;64719;52.124;6.226;2024-02-26T06:51:14;8.77;;;5.55;;
76023;SDS011;64719;52.124;6.226;2024-02-26T06:53:40;10.88;;;6.65;;
76023;SDS011;64719;52.124;6.226;2024-02-26T06:56:08;9.23;;;5.68;;
76023;SDS011;64719;52.124;6.226;2024-02-26T06:58:34;10.68;;;6.30;;
76023;SDS011;64719;52.124;6.226;2024-02-26T07:01:00;8.60;;;5.60;;
76023;SDS011;64719;52.124;6.226;2024-02-26T07:03:27;10.65;;;6.20;;
76023;SDS011;64719;52.124;6.226;2024-02-26T07:05:54;10.18;;;6.50;;
76023;SDS011;64719;52.124;6.226;2024-02-26T07:08:20;9.50;;;6.05;;
76023;SDS011;64719;52.124;6.226;2024-02-26T07:10:47;9.95;;;5.93;;
76023;SDS011;64719;52.124;6.226;2024-02-26T07:13:14;11.98;;;6.68;;
76023;SDS011;64719;52.124;6.226;2024-02-26T07:15:40;11.52;;;5.97;;
76023;SDS011;64719;52.124;6.226;2024-02-26T07:18:07;12.45;;;7.00;;
76023;SDS011;64719;52.124;6.226;2024-02-26T07:20:33;12.48;;;6.88;;
76023;SDS011;64719;52.124;6.226;2024-02-26T07:23:00;13.98;;;7.35;;
76023;SDS011;64719;52.124;6.226;2024-02-26T07:25:26;14.52;;;6.68;;
76023;SDS011;64719;52.124;6.226;2024-02-26T07:27:52;15.63;;;7.72;;
76023;SDS011;64719;52.124;6.226;2024-02-26T07:30:20;15.82;;;8.23;;
76023;SDS011;64719;52.124;6.226;2024-02-26T07:32:46;14.77;;;8.20;;
76023;SDS011;64719;52.124;6.226;2024-02-26T07:35:12;16.10;;;8.00;;
76023;SDS011;64719;52.124;6.226;2024-02-26T07:37:39;14.68;;;8.02;;
76023;SDS011;64719;52.124;6.226;2024-02-26T07:40:06;13.43;;;8.30;;
76023;SDS011;64719;52.124;6.226;2024-02-26T07:42:33;13.68;;;7.78;;
76023;SDS011;64719;52.124;6.226;2024-02-26T07:44:59;16.45;;;9.25;;
76023;SDS011;64719;52.124;6.226;2024-02-26T07:47:27;18.45;;;9.38;;
76023;SDS011;64719;52.124;6.226;2024-02-26T07:49:54;17.80;;;8.77;;
76023;SDS011;64719;52.124;6.226;2024-02-26T07:52:21;16.33;;;8.80;;
76023;SDS011;64719;52.124;6.226;2024-02-26T07:54:48;17.33;;;9.45;;
76023;SDS011;64719;52.124;6.226;2024-02-26T07:57:14;15.88;;;8.73;;
76023;SDS011;64719;52.124;6.226;2024-02-26T07:59:42;18.75;;;10.00;;
76023;SDS011;64719;52.124;6.226;2024-02-26T08:02:09;15.70;;;7.93;;
76023;SDS011;64719;52.124;6.226;2024-02-26T08:04:37;17.42;;;9.13;;
76023;SDS011;64719;52.124;6.226;2024-02-26T08:07:03;16.05;;;8.70;;
76023;SDS011;64719;52.124;6.226;2024-02-26T08:09:30;16.88;;;9.23;;
76023;SDS011;64719;52.124;6.226;2024-02-26T08:11:56;15.25;;;7.88;;
76023;SDS011;64719;52.124;6.226;2024-02-26T08:14:22;16.17;;;8.10;;
76023;SDS011;64719;52.124;6.226;2024-02-26T08:16:49;17.13;;;8.55;;
76023;SDS011;64719;52.124;6.226;2024-02-26T08:19:15;17.13;;;8.95;;
76023;SDS011;64719;52.124;6.226;2024-02-26T08:21:44;16.92;;;7.25;;
76023;SDS011;64719;52.124;6.226;2024-02-26T08:24:10;18.85;;;8.52;;
76023;SDS011;64719;52.124;6.226;2024-02-26T08:26:36;18.38;;;8.98;;
76023;SDS011;64719;52.124;6.226;2024-02-26T08:29:02;16.67;;;8.88;;
76023;SDS011;64719;52.124;6.226;2024-02-26T08:31:29;16.30;;;7.97;;
76023;SDS011;64719;52.124;6.226;2024-02-26T08:33:55;18.98;;;8.70;;
76023;SDS011;64719;52.124;6.226;2024-02-26T08:36:22;20.55;;;9.68;;
76023;SDS011;64719;52.124;6.226;2024-02-26T08:38:50;19.27;;;9.65;;
76023;SDS011;64719;52.124;6.226;2024-02-26T08:41:16;17.10;;;8.68;;
76023;SDS011;64719;52.124;6.226;2024-02-26T08:43:42;21.25;;;9.50;;
76023;SDS011;64719;52.124;6.226;2024-02-26T08:46:09;21.60;;;8.48;;
76023;SDS011;64719;52.124;6.226;2024-02-26T08:48:36;18.60;;;8.13;;
76023;SDS011;64719;52.124;6.226;2024-02-26T08:51:04;20.45;;;9.35;;
76023;SDS011;64719;52.124;6.226;2024-02-26T08:53:30;17.17;;;8.43;;
76023;SDS011;64719;52.124;6.226;2024-02-26T08:55:58;21.27;;;9.27;;
76023;SDS011;64719;52.124;6.226;2024-02-26T08:58:24;21.65;;;8.68;;
76023;SDS011;64719;52.124;6.226;2024-02-26T09:00:51;19.45;;;8.25;;
76023;SDS011;64719;52.124;6.226;2024-02-26T09:03:17;19.70;;;9.68;;
76023;SDS011;64719;52.124;6.226;2024-02-26T09:05:44;20.92;;;9.00;;
76023;SDS011;64719;52.124;6.226;2024-02-26T09:08:10;22.83;;;9.57;;
76023;SDS011;64719;52.124;6.226;2024-02-26T09:10:36;19.67;;;9.05;;
76023;SDS011;64719;52.124;6.226;2024-02-26T09:13:04;23.33;;;9.07;;
76023;SDS011;64719;52.124;6.226;2024-02-26T09:15:30;22.30;;;10.25;;
76023;SDS011;64719;52.124;6.226;2024-02-26T09:17:57;21.17;;;9.52;;
76023;SDS011;64719;52.124;6.226;2024-02-26T09:20:23;21.80;;;9.75;;
76023;SDS011;64719;52.124;6.226;2024-02-26T09:22:50;24.13;;;10.23;;
76023;SDS011;64719;52.124;6.226;2024-02-26T09:25:16;20.05;;;9.55;;
76023;SDS011;64719;52.124;6.226;2024-02-26T09:27:43;21.25;;;8.45;;
76023;SDS011;64719;52.124;6.226;2024-02-26T09:30:11;19.63;;;9.43;;
76023;SDS011;64719;52.124;6.226;2024-02-26T09:32:38;22.92;;;9.98;;
76023;SDS011;64719;52.124;6.226;2024-02-26T09:35:05;20.70;;;9.98;;
76023;SDS011;64719;52.124;6.226;2024-02-26T09:37:31;20.75;;;9.45;;
76023;SDS011;64719;52.124;6.226;2024-02-26T09:39:57;21.63;;;8.98;;
76023;SDS011;64719;52.124;6.226;2024-02-26T09:42:24;20.10;;;8.48;;
76023;SDS011;64719;52.124;6.226;2024-02-26T09:44:51;20.55;;;9.30;;
76023;SDS011;64719;52.124;6.226;2024-02-26T09:47:20;23.52;;;9.48;;
76023;SDS011;64719;52.124;6.226;2024-02-26T09:49:47;22.10;;;10.15;;
76023;SDS011;64719;52.124;6.226;2024-02-26T09:52:14;22.30;;;9.75;;
76023;SDS011;64719;52.124;6.226;2024-02-26T09:54:41;20.48;;;8.98;;
76023;SDS011;64719;52.124;6.226;2024-02-26T09:57:09;20.33;;;9.55;;
76023;SDS011;64719;52.124;6.226;2024-02-26T09:59:39;21.40;;;9.65;;
76023;SDS011;64719;52.124;6.226;2024-02-26T10:02:06;18.30;;;9.05;;
76023;SDS011;64719;52.124;6.226;2024-02-26T10:07:02;17.42;;;8.20;;
76023;SDS011;64719;52.124;6.226;2024-02-26T10:11:55;18.20;;;8.45;;
76023;SDS011;64719;52.124;6.226;2024-02-26T10:14:22;18.88;;;9.30;;
76023;SDS011;64719;52.124;6.226;2024-02-26T10:16:50;20.08;;;8.70;;
76023;SDS011;64719;52.124;6.226;2024-02-26T10:19:24;22.42;;;9.82;;
76023;SDS011;64719;52.124;6.226;2024-02-26T10:21:52;17.88;;;8.40;;
76023;SDS011;64719;52.124;6.226;2024-02-26T10:24:20;18.85;;;8.30;;
76023;SDS011;64719;52.124;6.226;2024-02-26T10:26:46;21.65;;;8.70;;
76023;SDS011;64719;52.124;6.226;2024-02-26T10:29:13;17.27;;;7.90;;
76023;SDS011;64719;52.124;6.226;2024-02-26T10:31:41;20.83;;;9.15;;
76023;SDS011;64719;52.124;6.226;2024-02-26T10:34:08;16.27;;;8.50;;
76023;SDS011;64719;52.124;6.226;2024-02-26T10:36:34;17.02;;;8.90;;
76023;SDS011;64719;52.124;6.226;2024-02-26T10:39:01;21.25;;;8.52;;
76023;SDS011;64719;52.124;6.226;2024-02-26T10:41:28;20.42;;;8.95;;
76023;SDS011;64719;52.124;6.226;2024-02-26T10:43:55;20.42;;;8.93;;
76023;SDS011;64719;52.124;6.226;2024-02-26T10:46:21;22.45;;;9.85;;
76023;SDS011;64719;52.124;6.226;2024-02-26T10:48:51;17.65;;;8.43;;
76023;SDS011;64719;52.124;6.226;2024-02-26T10:51:17;18.30;;;8.77;;
76023;SDS011;64719;52.124;6.226;2024-02-26T10:53:46;20.23;;;8.68;;
76023;SDS011;64719;52.124;6.226;2024-02-26T10:56:13;19.10;;;8.20;;
76023;SDS011;64719;52.124;6.226;2024-02-26T10:58:42;18.25;;;9.07;;
76023;SDS011;64719;52.124;6.226;2024-02-26T11:03:36;18.42;;;8.35;;
76023;SDS011;64719;52.124;6.226;2024-02-26T11:06:04;17.55;;;8.32;;
76023;SDS011;64719;52.124;6.226;2024-02-26T11:08:31;15.40;;;7.68;;
76023;SDS011;64719;52.124;6.226;2024-02-26T11:10:57;22.88;;;9.30;;
76023;SDS011;64719;52.124;6.226;2024-02-26T11:13:26;19.05;;;8.30;;
76023;SDS011;64719;52.124;6.226;2024-02-26T11:15:56;16.95;;;8.45;;
76023;SDS011;64719;52.124;6.226;2024-02-26T11:18:23;13.77;;;6.85;;
76023;SDS011;64719;52.124;6.226;2024-02-26T11:20:49;18.08;;;8.00;;
76023;SDS011;64719;52.124;6.226;2024-02-26T11:23:17;15.75;;;7.45;;
76023;SDS011;64719;52.124;6.226;2024-02-26T11:25:43;16.30;;;8.77;;
76023;SDS011;64719;52.124;6.226;2024-02-26T11:28:10;18.10;;;8.05;;
76023;SDS011;64719;52.124;6.226;2024-02-26T11:30:38;18.90;;;8.02;;
76023;SDS011;64719;52.124;6.226;2024-02-26T11:35:33;14.57;;;6.97;;
76023;SDS011;64719;52.124;6.226;2024-02-26T11:37:59;16.05;;;7.78;;
76023;SDS011;64719;52.124;6.226;2024-02-26T11:40:26;17.27;;;8.07;;
76023;SDS011;64719;52.124;6.226;2024-02-26T11:42:53;17.58;;;7.07;;
76023;SDS011;64719;52.124;6.226;2024-02-26T11:48:05;15.27;;;6.60;;
76023;SDS011;64719;52.124;6.226;2024-02-26T11:50:39;16.63;;;7.18;;
76023;SDS011;64719;52.124;6.226;2024-02-26T11:53:22;12.93;;;6.25;;
76023;SDS011;64719;52.124;6.226;2024-02-26T11:55:48;13.70;;;6.80;;
76023;SDS011;64719;52.124;6.226;2024-02-26T11:58:35;12.70;;;6.40;;
76023;SDS011;64719;52.124;6.226;2024-02-26T12:01:02;12.40;;;6.13;;
76023;SDS011;64719;52.124;6.226;2024-02-26T12:03:29;13.93;;;7.57;;
76023;SDS011;64719;52.124;6.226;2024-02-26T12:05:57;12.35;;;6.22;;
76023;SDS011;64719;52.124;6.226;2024-02-26T12:08:23;14.32;;;6.53;;
76023;SDS011;64719;52.124;6.226;2024-02-26T12:10:50;13.27;;;6.20;;
76023;SDS011;64719;52.124;6.226;2024-02-26T12:13:19;12.13;;;6.00;;
76023;SDS011;64719;52.124;6.226;2024-02-26T12:15:55;15.73;;;7.25;;
76023;SDS011;64719;52.124;6.226;2024-02-26T12:18:22;12.95;;;5.85;;
76023;SDS011;64719;52.124;6.226;2024-02-26T12:20:58;10.02;;;6.38;;
76023;SDS011;64719;52.124;6.226;2024-02-26T12:23:25;11.95;;;5.45;;
76023;SDS011;64719;52.124;6.226;2024-02-26T12:25:52;10.88;;;5.72;;
76023;SDS011;64719;52.124;6.226;2024-02-26T12:28:18;12.43;;;5.80;;
76023;SDS011;64719;52.124;6.226;2024-02-26T12:30:44;11.57;;;5.18;;
76023;SDS011;64719;52.124;6.226;2024-02-26T12:33:11;12.75;;;6.53;;
76023;SDS011;64719;52.124;6.226;2024-02-26T12:35:37;12.02;;;6.55;;
76023;SDS011;64719;52.124;6.226;2024-02-26T12:38:05;12.82;;;6.82;;
76023;SDS011;64719;52.124;6.226;2024-02-26T12:40:31;13.80;;;6.20;;
76023;SDS011;64719;52.124;6.226;2024-02-26T12:42:58;12.65;;;5.90;;
76023;SDS011;64719;52.124;6.226;2024-02-26T12:45:24;11.68;;;6.75;;
76023;SDS011;64719;52.124;6.226;2024-02-26T12:47:51;13.48;;;6.43;;
76023;SDS011;64719;52.124;6.226;2024-02-26T12:50:17;13.57;;;6.85;;
76023;SDS011;64719;52.124;6.226;2024-02-26T12:52:44;11.23;;;5.90;;
76023;SDS011;64719;52.124;6.226;2024-02-26T12:55:13;13.30;;;6.30;;
76023;SDS011;64719;52.124;6.226;2024-02-26T12:57:40;10.48;;;5.35;;
76023;SDS011;64719;52.124;6.226;2024-02-26T13:00:08;11.90;;;5.60;;
76023;SDS011;64719;52.124;6.226;2024-02-26T13:02:36;14.10;;;6.97;;
76023;SDS011;64719;52.124;6.226;2024-02-26T13:05:03;10.25;;;5.15;;
76023;SDS011;64719;52.124;6.226;2024-02-26T13:07:30;11.93;;;6.57;;
76023;SDS011;64719;52.124;6.226;2024-02-26T13:09:56;12.27;;;6.72;;
76023;SDS011;64719;52.124;6.226;2024-02-26T13:12:24;12.68;;;6.28;;
76023;SDS011;64719;52.124;6.226;2024-02-26T13:14:58;11.27;;;5.53;;
76023;SDS011;64719;52.124;6.226;2024-02-26T13:17:24;12.07;;;6.22;;
76023;SDS011;64719;52.124;6.226;2024-02-26T13:22:20;10.20;;;5.70;;
76023;SDS011;64719;52.124;6.226;2024-02-26T13:24:52;9.82;;;5.50;;
76023;SDS011;64719;52.124;6.226;2024-02-26T13:27:20;12.40;;;5.47;;
76023;SDS011;64719;52.124;6.226;2024-02-26T13:29:48;13.75;;;6.20;;
76023;SDS011;64719;52.124;6.226;2024-02-26T13:32:14;13.45;;;6.55;;
76023;SDS011;64719;52.124;6.226;2024-02-26T13:34:41;13.23;;;6.10;;
76023;SDS011;64719;52.124;6.226;2024-02-26T13:37:07;11.90;;;6.03;;
76023;SDS011;64719;52.124;6.226;2024-02-26T13:39:34;10.40;;;5.93;;
76023;SDS011;64719;52.124;6.226;2024-02-26T13:42:00;9.27;;;4.90;;
76023;SDS011;64719;52.124;6.226;2024-02-26T13:44:27;13.98;;;5.53;;
76023;SDS011;64719;52.124;6.226;2024-02-26T13:46:54;10.20;;;4.93;;
76023;SDS011;64719;52.124;6.226;2024-02-26T13:49:20;10.55;;;5.72;;
76023;SDS011;64719;52.124;6.226;2024-02-26T13:51:47;12.40;;;5.78;;
76023;SDS011;64719;52.124;6.226;2024-02-26T13:54:13;10.50;;;5.13;;
76023;SDS011;64719;52.124;6.226;2024-02-26T13:56:39;12.80;;;5.97;;
76023;SDS011;64719;52.124;6.226;2024-02-26T13:59:06;8.93;;;4.85;;
76023;SDS011;64719;52.124;6.226;2024-02-26T14:01:32;11.90;;;5.45;;
76023;SDS011;64719;52.124;6.226;2024-02-26T14:04:00;11.02;;;5.72;;
76023;SDS011;64719;52.124;6.226;2024-02-26T14:06:28;10.13;;;5.03;;
76023;SDS011;64719;52.124;6.226;2024-02-26T14:08:55;10.15;;;5.30;;
76023;SDS011;64719;52.124;6.226;2024-02-26T14:11:22;11.32;;;5.40;;
76023;SDS011;64719;52.124;6.226;2024-02-26T14:13:48;10.00;;;5.35;;
76023;SDS011;64719;52.124;6.226;2024-02-26T14:16:14;10.60;;;5.80;;
76023;SDS011;64719;52.124;6.226;2024-02-26T14:18:41;11.07;;;5.72;;
76023;SDS011;64719;52.124;6.226;2024-02-26T14:23:37;9.35;;;4.53;;
76023;SDS011;64719;52.124;6.226;2024-02-26T14:26:05;9.50;;;4.93;;
76023;SDS011;64719;52.124;6.226;2024-02-26T14:28:31;8.48;;;4.43;;
76023;SDS011;64719;52.124;6.226;2024-02-26T14:30:59;12.98;;;5.72;;
76023;SDS011;64719;52.124;6.226;2024-02-26T14:33:25;8.98;;;5.10;;
76023;SDS011;64719;52.124;6.226;2024-02-26T14:35:51;10.45;;;4.97;;
76023;SDS011;64719;52.124;6.226;2024-02-26T14:38:18;9.90;;;5.07;;
76023;SDS011;64719;52.124;6.226;2024-02-26T14:40:45;8.52;;;5.07;;
76023;SDS011;64719;52.124;6.226;2024-02-26T14:43:12;9.98;;;5.13;;
76023;SDS011;64719;52.124;6.226;2024-02-26T14:45:38;12.35;;;5.57;;
76023;SDS011;64719;52.124;6.226;2024-02-26T14:48:08;10.45;;;5.53;;
76023;SDS011;64719;52.124;6.226;2024-02-26T14:50:35;8.65;;;4.78;;
76023;SDS011;64719;52.124;6.226;2024-02-26T14:53:01;10.40;;;5.80;;